createdAt,value
2022-09-11T00:01:38.894Z,2.60
2022-09-11T00:04:05.815Z,4.05
2022-09-11T00:06:32.553Z,3.40
2022-09-11T00:09:01.753Z,2.50
2022-09-11T00:11:34.471Z,1.92
2022-09-11T00:14:01.401Z,2.50
2022-09-11T00:16:34.577Z,3.95
2022-09-11T00:19:07.312Z,2.47
2022-09-11T00:21:34.022Z,2.42
2022-09-11T00:24:00.936Z,3.17
2022-09-11T00:26:27.752Z,2.78
2022-09-11T00:28:54.822Z,2.70
2022-09-11T00:31:27.211Z,2.28
2022-09-11T00:33:54.272Z,4.13
2022-09-11T00:36:23.825Z,3.92
2022-09-11T00:38:51.086Z,2.80
2022-09-11T00:41:27.709Z,3.03
2022-09-11T00:43:59.041Z,2.40
2022-09-11T00:46:44.320Z,3.00
2022-09-11T00:49:50.928Z,2.85
2022-09-11T00:52:24.867Z,3.75
2022-09-11T00:55:05.305Z,4.22
2022-09-11T00:57:35.855Z,2.92
2022-09-11T01:00:04.718Z,3.95
2022-09-11T01:02:34.829Z,3.47
2022-09-11T01:05:03.798Z,3.75
2022-09-11T01:07:31.966Z,4.28
2022-09-11T01:09:59.151Z,3.85
2022-09-11T01:13:00.074Z,4.18
2022-09-11T01:15:35.936Z,4.65
2022-09-11T01:18:05.995Z,3.92
2022-09-11T01:20:50.997Z,4.70
2022-09-11T01:23:46.884Z,3.83
2022-09-11T01:26:31.905Z,4.25
2022-09-11T01:29:26.408Z,4.60
2022-09-11T01:32:19.622Z,4.80
2022-09-11T01:34:52.359Z,5.80
2022-09-11T01:37:27.249Z,5.13
2022-09-11T01:40:02.048Z,5.45
2022-09-11T01:42:36.111Z,5.82
2022-09-11T01:45:05.109Z,6.55
2022-09-11T01:47:34.851Z,8.52
2022-09-11T01:50:11.097Z,7.57
2022-09-11T01:53:00.300Z,8.48
2022-09-11T01:55:37.117Z,8.25
2022-09-11T01:58:09.085Z,9.30
2022-09-11T02:00:41.924Z,8.65
2022-09-11T02:03:22.685Z,8.38
2022-09-11T02:05:57.359Z,8.63
2022-09-11T02:08:30.746Z,8.48
2022-09-11T02:11:07.807Z,8.43
2022-09-11T02:14:03.981Z,7.95
2022-09-11T02:16:42.525Z,7.22
2022-09-11T02:19:12.486Z,6.47
2022-09-11T02:21:39.603Z,6.80
2022-09-11T02:24:08.504Z,7.00
2022-09-11T02:26:41.845Z,6.32
2022-09-11T02:29:08.951Z,6.65
2022-09-11T02:31:36.314Z,7.03
2022-09-11T02:34:03.449Z,6.65
2022-09-11T02:36:51.572Z,7.28
2022-09-11T02:39:33.676Z,6.00
2022-09-11T02:42:03.411Z,6.07
2022-09-11T02:44:42.338Z,6.40
2022-09-11T02:47:36.863Z,6.38
2022-09-11T02:50:33.667Z,6.10
2022-09-11T02:53:18.758Z,6.22
2022-09-11T02:56:06.855Z,6.20
2022-09-11T02:58:46.317Z,6.32
2022-09-11T03:01:13.050Z,6.80
2022-09-11T03:03:45.283Z,6.40
2022-09-11T03:06:17.601Z,5.60
2022-09-11T03:08:45.725Z,5.60
2022-09-11T03:11:12.728Z,5.88
2022-09-11T03:13:39.572Z,5.30
2022-09-11T03:16:08.304Z,5.38
2022-09-11T03:18:35.011Z,5.50
2022-09-11T03:21:01.851Z,6.55
2022-09-11T03:23:28.515Z,5.82
2022-09-11T03:25:55.413Z,5.57
2022-09-11T03:28:23.246Z,5.93
2022-09-11T03:30:50.623Z,5.38
2022-09-11T03:33:17.372Z,5.70
2022-09-11T03:35:44.552Z,5.93
2022-09-11T03:38:12.210Z,6.00
2022-09-11T03:40:42.464Z,5.85
2022-09-11T03:43:09.296Z,7.28
2022-09-11T03:45:35.921Z,5.05
2022-09-11T03:48:02.621Z,6.05
2022-09-11T03:50:29.345Z,5.55
2022-09-11T03:52:56.064Z,4.82
2022-09-11T03:55:22.680Z,5.45
2022-09-11T03:57:49.931Z,6.75
2022-09-11T04:00:16.625Z,5.65
2022-09-11T04:02:54.110Z,6.07
2022-09-11T04:05:30.955Z,5.45
2022-09-11T04:07:59.902Z,5.55
2022-09-11T04:10:27.763Z,5.93
2022-09-11T04:12:56.690Z,5.40
2022-09-11T04:15:23.327Z,5.57
2022-09-11T04:17:50.177Z,5.82
2022-09-11T04:20:16.923Z,7.82
2022-09-11T04:22:45.539Z,6.10
2022-09-11T04:25:13.012Z,6.25
2022-09-11T04:27:39.956Z,6.05
2022-09-11T04:30:10.065Z,6.57
2022-09-11T04:32:36.716Z,6.20
2022-09-11T04:35:03.609Z,6.85
2022-09-11T04:37:35.727Z,7.20
2022-09-11T04:40:03.478Z,7.25
2022-09-11T04:42:31.204Z,8.30
2022-09-11T04:44:58.080Z,8.20
2022-09-11T04:47:24.707Z,8.90
2022-09-11T04:49:51.369Z,8.52
2022-09-11T04:52:18.162Z,9.07
2022-09-11T04:54:44.841Z,9.63
2022-09-11T04:57:11.441Z,10.60
2022-09-11T04:59:39.123Z,10.27
2022-09-11T05:02:10.397Z,10.38
2022-09-11T05:04:40.476Z,10.60
2022-09-11T05:07:07.211Z,11.80
2022-09-11T05:09:35.043Z,11.55
2022-09-11T05:12:02.259Z,11.10
2022-09-11T05:14:31.992Z,11.07
2022-09-11T05:16:59.304Z,13.52
2022-09-11T05:19:28.289Z,10.80
2022-09-11T05:21:54.938Z,11.18
2022-09-11T05:24:22.609Z,11.48
2022-09-11T05:26:51.590Z,10.43
2022-09-11T05:29:18.326Z,10.75
2022-09-11T05:31:55.251Z,11.23
2022-09-11T05:34:21.921Z,10.43
2022-09-11T05:36:49.735Z,10.15
2022-09-11T05:39:19.169Z,10.35
2022-09-11T05:41:54.828Z,11.50
2022-09-11T05:44:28.194Z,10.35
2022-09-11T05:46:56.291Z,9.88
2022-09-11T05:49:24.052Z,9.20
2022-09-11T05:51:51.287Z,9.52
2022-09-11T05:54:17.900Z,10.05
2022-09-11T05:56:45.361Z,8.85
2022-09-11T05:59:19.407Z,9.77
2022-09-11T06:01:48.452Z,10.45
2022-09-11T06:04:21.825Z,9.68
2022-09-11T06:06:51.216Z,9.43
2022-09-11T06:09:18.771Z,9.43
2022-09-11T06:11:45.540Z,9.55
2022-09-11T06:14:12.156Z,9.02
2022-09-11T06:16:39.917Z,9.27
2022-09-11T06:19:11.304Z,9.98
2022-09-11T06:21:37.986Z,10.25
2022-09-11T06:24:10.897Z,9.10
2022-09-11T06:26:38.425Z,12.23
2022-09-11T06:29:05.052Z,11.13
2022-09-11T06:31:35.490Z,10.50
2022-09-11T06:34:02.123Z,9.95
2022-09-11T06:36:29.165Z,9.93
2022-09-11T06:38:58.780Z,10.80
2022-09-11T06:41:28.240Z,10.88
2022-09-11T06:44:03.470Z,10.40
2022-09-11T06:46:31.037Z,13.07
2022-09-11T06:48:59.899Z,10.85
2022-09-11T06:51:28.032Z,10.65
2022-09-11T06:53:57.661Z,10.15
2022-09-11T06:56:26.977Z,10.18
2022-09-11T06:58:53.785Z,10.45
2022-09-11T07:01:24.152Z,9.90
2022-09-11T07:03:56.222Z,10.48
2022-09-11T07:06:27.156Z,9.65
2022-09-11T07:08:57.752Z,8.77
2022-09-11T07:11:24.457Z,9.40
2022-09-11T07:13:51.755Z,9.07
2022-09-11T07:16:18.644Z,8.45
2022-09-11T07:18:52.282Z,8.68
2022-09-11T07:21:23.508Z,9.15
2022-09-11T07:23:58.897Z,7.80
2022-09-11T07:26:29.126Z,7.78
2022-09-11T07:29:02.219Z,7.75
2022-09-11T07:31:32.169Z,8.38
2022-09-11T07:33:59.309Z,7.97
2022-09-11T07:36:28.517Z,9.20
2022-09-11T07:38:55.298Z,8.70
2022-09-11T07:41:27.505Z,8.55
2022-09-11T07:43:59.468Z,8.32
2022-09-11T07:46:28.508Z,9.40
2022-09-11T07:48:55.462Z,8.98
2022-09-11T07:51:22.409Z,8.50
2022-09-11T07:53:51.348Z,8.02
2022-09-11T07:56:22.796Z,8.15
2022-09-11T07:58:51.178Z,8.00
2022-09-11T08:01:24.821Z,7.43
2022-09-11T08:03:56.888Z,7.70
2022-09-11T08:06:27.383Z,7.65
2022-09-11T08:08:59.771Z,9.50
2022-09-11T08:11:27.848Z,8.02
2022-09-11T08:13:55.865Z,7.00
2022-09-11T08:16:27.363Z,7.22
2022-09-11T08:18:57.593Z,7.13
2022-09-11T08:21:24.657Z,7.43
2022-09-11T08:23:51.651Z,7.28
2022-09-11T08:26:26.970Z,7.28
2022-09-11T08:28:56.207Z,6.30
2022-09-11T08:31:26.491Z,6.15
2022-09-11T08:33:56.060Z,7.75
2022-09-11T08:36:23.618Z,6.45
2022-09-11T08:38:52.075Z,6.82
2022-09-11T08:41:24.039Z,6.90
2022-09-11T08:43:55.723Z,6.78
2022-09-11T08:46:26.309Z,6.65
2022-09-11T08:49:17.600Z,6.72
2022-09-11T08:51:44.890Z,5.85
2022-09-11T08:54:26.090Z,5.85
2022-09-11T08:56:59.657Z,5.55
2022-09-11T09:00:03.905Z,5.25
2022-09-11T09:02:59.297Z,4.93
2022-09-11T09:06:04.707Z,5.10
2022-09-11T09:09:12.009Z,5.32
2022-09-11T09:11:53.917Z,5.28
2022-09-11T09:14:35.000Z,5.82
2022-09-11T09:17:27.281Z,6.22
2022-09-11T09:20:01.409Z,5.95
2022-09-11T09:22:45.440Z,6.60
2022-09-11T09:25:17.379Z,6.47
2022-09-11T09:28:14.517Z,6.53
2022-09-11T09:30:55.155Z,6.97
2022-09-11T09:33:51.041Z,8.82
2022-09-11T09:36:30.444Z,6.40
2022-09-11T09:38:59.331Z,7.30
2022-09-11T09:42:05.299Z,7.00
2022-09-11T09:44:50.542Z,9.50
2022-09-11T09:47:17.648Z,7.32
2022-09-11T09:49:45.167Z,7.35
2022-09-11T09:52:26.223Z,7.72
2022-09-11T09:54:56.333Z,7.57
2022-09-11T09:57:26.191Z,7.63
2022-09-11T10:00:01.933Z,8.70
2022-09-11T10:02:45.345Z,6.63
2022-09-11T10:05:16.371Z,7.00
2022-09-11T10:07:52.325Z,6.22
2022-09-11T10:10:39.660Z,5.90
2022-09-11T10:13:27.677Z,5.93
2022-09-11T10:15:57.648Z,6.43
2022-09-11T10:18:30.432Z,6.45
2022-09-11T10:21:32.292Z,6.53
2022-09-11T10:24:01.194Z,6.53
2022-09-11T10:26:29.595Z,6.50
2022-09-11T10:29:04.936Z,5.93
2022-09-11T10:31:31.655Z,5.40
2022-09-11T10:34:00.241Z,5.10
2022-09-11T10:36:29.881Z,5.28
2022-09-11T10:38:58.752Z,6.03
2022-09-11T10:41:27.185Z,6.90
2022-09-11T10:43:59.677Z,4.93
2022-09-11T10:46:41.230Z,5.28
2022-09-11T10:49:16.695Z,5.38
2022-09-11T10:51:58.948Z,6.32
2022-09-11T10:54:34.700Z,5.15
2022-09-11T10:57:23.045Z,5.82
2022-09-11T11:00:15.454Z,5.35
2022-09-11T11:02:52.146Z,5.75
2022-09-11T11:05:24.761Z,6.38
2022-09-11T11:08:29.159Z,5.47
2022-09-11T11:11:32.393Z,5.75
2022-09-11T11:14:36.094Z,6.80
2022-09-11T11:17:36.809Z,6.25
2022-09-11T11:20:21.120Z,6.18
2022-09-11T11:22:47.806Z,5.47
2022-09-11T11:25:29.390Z,5.40
2022-09-11T11:28:44.527Z,5.05
2022-09-11T11:31:39.371Z,5.35
2022-09-11T11:34:29.234Z,4.80
2022-09-11T11:37:15.005Z,4.90
2022-09-11T11:39:44.843Z,4.32
2022-09-11T11:42:24.727Z,4.57
2022-09-11T11:44:56.730Z,4.72
2022-09-11T11:47:30.358Z,3.97
2022-09-11T11:50:06.500Z,4.35
2022-09-11T11:52:33.084Z,3.38
2022-09-11T11:55:14.902Z,3.75
2022-09-11T11:57:47.016Z,3.25
2022-09-11T12:00:16.934Z,2.75
2022-09-11T12:02:51.703Z,3.15
2022-09-11T12:05:25.217Z,2.53
2022-09-11T12:07:52.420Z,2.60
2022-09-11T12:10:41.924Z,2.88
2022-09-11T12:13:14.633Z,2.80
2022-09-11T12:16:18.198Z,2.83
2022-09-11T12:19:13.028Z,2.63
2022-09-11T12:21:45.341Z,2.50
2022-09-11T12:24:14.232Z,2.38
2022-09-11T12:26:40.847Z,2.45
2022-09-11T12:29:10.727Z,2.35
2022-09-11T12:31:49.312Z,2.47
2022-09-11T12:34:23.959Z,2.17
2022-09-11T12:37:13.732Z,2.38
2022-09-11T12:39:50.544Z,2.53
2022-09-11T12:42:23.417Z,2.50
2022-09-11T12:44:50.079Z,2.30
2022-09-11T12:47:37.654Z,2.30
2022-09-11T12:50:04.336Z,2.28
2022-09-11T12:52:39.125Z,3.67
2022-09-11T12:55:32.760Z,2.10
2022-09-11T12:58:03.501Z,2.33
2022-09-11T13:00:40.024Z,2.33
2022-09-11T13:03:17.549Z,2.60
2022-09-11T13:05:52.548Z,2.20
2022-09-11T13:08:21.745Z,1.80
2022-09-11T13:10:48.476Z,2.30
2022-09-11T13:13:35.767Z,2.38
2022-09-11T13:16:22.636Z,2.00
2022-09-11T13:18:49.385Z,2.05
2022-09-11T13:21:19.571Z,2.20
2022-09-11T13:23:47.884Z,2.20
2022-09-11T13:26:24.010Z,1.77
2022-09-11T13:28:53.654Z,1.90
2022-09-11T13:31:44.590Z,2.15
2022-09-11T13:34:17.132Z,2.10
2022-09-11T13:36:44.670Z,1.95
2022-09-11T13:39:15.829Z,1.90
2022-09-11T13:41:43.653Z,1.80
2022-09-11T13:44:20.205Z,1.88
2022-09-11T13:46:51.882Z,1.60
2022-09-11T13:49:36.621Z,1.83
2022-09-11T13:52:05.349Z,1.70
2022-09-11T13:54:36.464Z,2.03
2022-09-11T13:57:03.146Z,3.33
2022-09-11T13:59:44.937Z,3.10
2022-09-11T14:02:50.701Z,2.80
2022-09-11T14:05:19.303Z,3.72
2022-09-11T14:07:59.907Z,2.90
2022-09-11T14:10:34.298Z,3.53
2022-09-11T14:13:21.829Z,3.35
2022-09-11T14:15:53.895Z,2.88
2022-09-11T14:18:52.787Z,3.50
2022-09-11T14:21:32.714Z,2.85
2022-09-11T14:24:00.136Z,4.63
2022-09-11T14:26:32.861Z,2.72
2022-09-11T14:29:21.585Z,2.92
2022-09-11T14:31:48.606Z,3.10
2022-09-11T14:34:16.788Z,2.88
2022-09-11T14:36:47.852Z,2.60
2022-09-11T14:39:23.219Z,2.42
2022-09-11T14:41:50.721Z,2.60
2022-09-11T14:44:17.903Z,2.50
2022-09-11T14:46:44.573Z,2.88
2022-09-11T14:49:11.264Z,2.50
2022-09-11T14:51:38.938Z,2.45
2022-09-11T14:54:05.852Z,2.60
2022-09-11T14:56:32.592Z,2.60
2022-09-11T14:58:59.785Z,2.15
2022-09-11T15:01:26.600Z,2.30
2022-09-11T15:03:53.287Z,2.58
2022-09-11T15:06:21.319Z,1.90
2022-09-11T15:08:48.010Z,2.10
2022-09-11T15:11:14.749Z,1.90
2022-09-11T15:13:57.891Z,2.33
2022-09-11T15:16:28.197Z,2.40
2022-09-11T15:18:54.766Z,2.30
2022-09-11T15:21:21.434Z,2.33
2022-09-11T15:23:48.081Z,2.38
2022-09-11T15:26:14.818Z,2.42
2022-09-11T15:28:41.446Z,3.35
2022-09-11T15:31:08.212Z,3.53
2022-09-11T15:33:34.844Z,3.97
2022-09-11T15:36:04.381Z,3.10
2022-09-11T15:38:31.831Z,2.60
2022-09-11T15:40:58.620Z,2.80
2022-09-11T15:43:33.051Z,3.15
2022-09-11T15:46:00.133Z,3.72
2022-09-11T15:48:26.802Z,3.75
2022-09-11T15:51:00.988Z,3.40
2022-09-11T15:53:28.815Z,3.90
2022-09-11T15:56:08.009Z,4.78
2022-09-11T15:58:36.221Z,3.25
2022-09-11T16:01:03.703Z,4.28
2022-09-11T16:03:31.086Z,3.60
2022-09-11T16:05:57.855Z,3.92
2022-09-11T16:08:24.732Z,3.80
2022-09-11T16:10:51.758Z,3.78
2022-09-11T16:13:18.916Z,3.10
2022-09-11T16:15:46.852Z,3.60
2022-09-11T16:18:13.808Z,4.03
2022-09-11T16:20:40.376Z,3.20
2022-09-11T16:23:07.835Z,3.58
2022-09-11T16:25:40.904Z,3.55
2022-09-11T16:28:08.566Z,3.60
2022-09-11T16:30:44.483Z,3.85
2022-09-11T16:33:13.317Z,4.65
2022-09-11T16:35:39.998Z,4.32
2022-09-11T16:38:07.837Z,4.40
2022-09-11T16:40:35.240Z,3.72
2022-09-11T16:43:03.026Z,4.10
2022-09-11T16:45:29.659Z,3.83
2022-09-11T16:47:59.142Z,3.92
2022-09-11T16:50:26.324Z,4.20
2022-09-11T16:52:53.139Z,4.72
2022-09-11T16:55:19.810Z,4.20
2022-09-11T16:57:46.487Z,3.88
2022-09-11T17:00:13.733Z,3.78
2022-09-11T17:02:40.797Z,4.00
2022-09-11T17:05:08.366Z,4.07
2022-09-11T17:07:35.701Z,3.83
2022-09-11T17:10:03.088Z,4.15
2022-09-11T17:12:29.824Z,4.38
2022-09-11T17:14:56.472Z,3.97
2022-09-11T17:17:23.198Z,5.28
2022-09-11T17:19:49.770Z,4.75
2022-09-11T17:22:17.274Z,3.58
2022-09-11T17:24:43.844Z,4.22
2022-09-11T17:27:10.541Z,6.13
2022-09-11T17:29:39.254Z,4.32
2022-09-11T17:32:27.277Z,4.72
2022-09-11T17:34:54.846Z,4.20
2022-09-11T17:37:21.428Z,5.75
2022-09-11T17:39:48.182Z,3.97
2022-09-11T17:42:15.369Z,4.28
2022-09-11T17:44:41.986Z,4.88
2022-09-11T17:47:08.952Z,4.15
2022-09-11T17:49:35.687Z,4.20
2022-09-11T17:52:02.539Z,4.25
2022-09-11T17:54:29.164Z,4.28
2022-09-11T17:56:55.811Z,4.40
2022-09-11T17:59:22.622Z,4.90
2022-09-11T18:01:49.387Z,4.10
2022-09-11T18:04:16.206Z,4.88
2022-09-11T18:06:42.790Z,4.03
2022-09-11T18:09:12.162Z,4.25
2022-09-11T18:11:40.466Z,4.40
2022-09-11T18:14:07.259Z,4.40
2022-09-11T18:16:34.177Z,5.28
2022-09-11T18:19:02.011Z,4.18
2022-09-11T18:21:28.600Z,4.90
2022-09-11T18:23:55.308Z,4.25
2022-09-11T18:26:30.656Z,4.63
2022-09-11T18:29:02.909Z,4.63
2022-09-11T18:31:30.866Z,4.80
2022-09-11T18:34:00.278Z,4.13
2022-09-11T18:36:29.506Z,5.55
2022-09-11T18:39:00.010Z,4.80
2022-09-11T18:41:28.226Z,4.43
2022-09-11T18:43:55.972Z,4.63
2022-09-11T18:46:23.310Z,4.95
2022-09-11T18:48:50.203Z,4.75
2022-09-11T18:51:18.616Z,5.25
2022-09-11T18:53:50.304Z,8.27
2022-09-11T18:56:16.993Z,10.98
2022-09-11T18:58:43.728Z,8.80
2022-09-11T19:01:14.503Z,12.18
2022-09-11T19:03:41.395Z,11.63
2022-09-11T19:06:10.877Z,10.35
2022-09-11T19:08:39.740Z,12.88
2022-09-11T19:11:15.991Z,10.77
2022-09-11T19:13:46.096Z,10.32
2022-09-11T19:16:13.445Z,11.25
2022-09-11T19:18:40.849Z,11.82
2022-09-11T19:21:11.761Z,12.48
2022-09-11T19:23:43.437Z,10.80
2022-09-11T19:26:12.992Z,11.57
2022-09-11T19:28:41.443Z,12.02
2022-09-11T19:31:10.051Z,11.40
2022-09-11T19:33:37.761Z,14.82
2022-09-11T19:36:36.172Z,12.73
2022-09-11T19:39:03.853Z,12.32
2022-09-11T19:41:36.807Z,10.73
2022-09-11T19:44:05.066Z,11.02
2022-09-11T19:46:33.664Z,11.05
2022-09-11T19:49:02.564Z,10.30
2022-09-11T19:51:31.800Z,10.25
2022-09-11T19:54:00.815Z,9.90
2022-09-11T19:56:28.357Z,9.70
2022-09-11T19:58:55.638Z,8.35
2022-09-11T20:01:23.668Z,8.63
2022-09-11T20:03:52.280Z,8.65
2022-09-11T20:06:20.413Z,6.68
2022-09-11T20:08:48.874Z,9.68
2022-09-11T20:11:19.282Z,7.18
2022-09-11T20:13:46.065Z,6.85
2022-09-11T20:16:18.773Z,8.32
2022-09-11T20:18:46.013Z,7.40
2022-09-11T20:21:15.099Z,6.57
2022-09-11T20:23:43.789Z,6.88
2022-09-11T20:26:16.958Z,6.60
2022-09-11T20:28:45.958Z,6.45
2022-09-11T20:31:14.035Z,6.25
2022-09-11T20:33:41.149Z,7.25
2022-09-11T20:36:07.838Z,6.00
2022-09-11T20:38:35.023Z,6.88
2022-09-11T20:41:10.449Z,8.10
2022-09-11T20:43:37.158Z,6.70
2022-09-11T20:46:04.224Z,6.40
2022-09-11T20:48:31.707Z,6.70
2022-09-11T20:51:03.093Z,7.10
2022-09-11T20:53:29.783Z,7.35
2022-09-11T20:56:10.876Z,7.18
2022-09-11T20:58:38.487Z,6.82
2022-09-11T21:01:07.421Z,6.40
2022-09-11T21:03:34.536Z,6.82
2022-09-11T21:06:08.523Z,7.05
2022-09-11T21:08:36.107Z,5.82
2022-09-11T21:11:06.364Z,5.20
2022-09-11T21:13:38.118Z,5.88
2022-09-11T21:16:09.865Z,5.72
2022-09-11T21:18:37.629Z,6.20
2022-09-11T21:21:04.611Z,5.75
2022-09-11T21:23:31.533Z,5.50
2022-09-11T21:25:58.271Z,5.40
2022-09-11T21:28:24.989Z,5.53
2022-09-11T21:30:51.601Z,5.57
2022-09-11T21:33:18.603Z,4.55
2022-09-11T21:35:49.980Z,6.68
2022-09-11T21:38:16.595Z,4.90
2022-09-11T21:40:43.168Z,6.32
2022-09-11T21:43:09.871Z,6.30
2022-09-11T21:45:36.498Z,6.97
2022-09-11T21:48:03.312Z,5.32
2022-09-11T21:50:30.174Z,7.45
2022-09-11T21:52:56.925Z,5.13
2022-09-11T21:55:23.533Z,6.10
2022-09-11T21:57:50.564Z,6.57
2022-09-11T22:00:17.161Z,5.93
2022-09-11T22:02:43.861Z,5.72
2022-09-11T22:05:10.635Z,6.43
2022-09-11T22:07:37.403Z,5.70
2022-09-11T22:10:06.537Z,6.50
2022-09-11T22:12:34.803Z,5.53
2022-09-11T22:15:01.779Z,5.68
2022-09-11T22:17:28.685Z,6.65
2022-09-11T22:19:55.361Z,7.07
2022-09-11T22:22:22.045Z,5.78
2022-09-11T22:24:48.628Z,6.40
2022-09-11T22:27:15.520Z,6.10
2022-09-11T22:29:46.816Z,5.65
2022-09-11T22:32:13.780Z,5.53
2022-09-11T22:34:40.446Z,6.25
2022-09-11T22:37:07.164Z,6.18
2022-09-11T22:39:33.760Z,6.35
2022-09-11T22:42:00.647Z,6.85
2022-09-11T22:44:27.296Z,5.57
2022-09-11T22:46:54.136Z,6.43
2022-09-11T22:49:20.863Z,6.00
2022-09-11T22:51:47.731Z,6.72
2022-09-11T22:54:14.421Z,6.55
2022-09-11T22:56:41.220Z,6.75
2022-09-11T22:59:08.209Z,5.80
2022-09-11T23:01:35.624Z,6.60
2022-09-11T23:04:02.720Z,6.43
2022-09-11T23:06:29.364Z,6.43
2022-09-11T23:08:56.399Z,7.32
2022-09-11T23:11:23.198Z,6.85
2022-09-11T23:13:50.227Z,6.07
2022-09-11T23:16:22.796Z,7.25
2022-09-11T23:18:57.078Z,6.05
2022-09-11T23:21:24.324Z,6.45
2022-09-11T23:23:54.540Z,5.22
2022-09-11T23:26:22.737Z,5.55
2022-09-11T23:28:49.859Z,6.45
2022-09-11T23:31:22.366Z,5.40
2022-09-11T23:33:49.303Z,5.60
2022-09-11T23:36:16.268Z,5.95
2022-09-11T23:38:44.312Z,6.25
2022-09-11T23:41:11.048Z,5.95
2022-09-11T23:43:37.832Z,5.05
2022-09-11T23:46:04.528Z,5.55
2022-09-11T23:48:31.365Z,5.68
2022-09-11T23:50:58.053Z,6.25
2022-09-11T23:53:24.771Z,4.95
2022-09-11T23:55:51.500Z,6.57
2022-09-11T23:58:18.187Z,6.60
